createdAt,value
2018-01-27T00:01:27.389Z,5.10
2018-01-27T00:03:55.644Z,5.10
2018-01-27T00:06:23.902Z,5.30
2018-01-27T00:08:52.164Z,5.30
2018-01-27T00:11:20.389Z,5.20
2018-01-27T00:13:52.578Z,5.20
2018-01-27T00:16:20.807Z,5.30
2018-01-27T00:18:49.052Z,5.20
2018-01-27T00:21:17.322Z,5.40
2018-01-27T00:23:45.601Z,5.40
2018-01-27T00:26:13.839Z,5.50
2018-01-27T00:28:42.101Z,5.20
2018-01-27T00:31:10.345Z,5.30
2018-01-27T00:33:38.588Z,5.20
2018-01-27T00:36:06.873Z,5.20
2018-01-27T00:38:35.125Z,5.40
2018-01-27T00:41:03.388Z,5.50
2018-01-27T00:43:31.668Z,5.40
2018-01-27T00:45:59.937Z,5.30
2018-01-27T00:48:28.171Z,5.30
2018-01-27T00:50:56.458Z,5.20
2018-01-27T00:53:25.461Z,5.10
2018-01-27T00:55:54.485Z,5.10
2018-01-27T00:58:22.749Z,5.10
2018-01-27T01:00:51.006Z,5.30
2018-01-27T01:03:20.006Z,5.40
2018-01-27T01:05:48.274Z,5.40
2018-01-27T01:08:17.316Z,5.50
2018-01-27T01:10:45.578Z,5.50
2018-01-27T01:13:14.470Z,5.50
2018-01-27T01:15:42.704Z,5.30
2018-01-27T01:18:13.840Z,5.20
2018-01-27T01:20:42.912Z,5.30
2018-01-27T01:23:11.147Z,5.30
2018-01-27T01:25:39.388Z,5.40
2018-01-27T01:28:08.423Z,5.40
2018-01-27T01:30:37.430Z,5.40
2018-01-27T01:33:05.657Z,5.40
2018-01-27T01:35:33.971Z,5.30
2018-01-27T01:38:02.224Z,5.30
2018-01-27T01:40:30.478Z,5.30
2018-01-27T01:43:05.105Z,5.40
2018-01-27T01:45:34.127Z,5.30
2018-01-27T01:48:02.360Z,5.30
2018-01-27T01:50:30.683Z,5.30
2018-01-27T01:52:58.929Z,5.20
2018-01-27T01:55:27.935Z,5.20
2018-01-27T01:57:56.236Z,5.20
2018-01-27T02:00:24.473Z,5.20
2018-01-27T02:02:52.725Z,5.20
2018-01-27T02:05:20.996Z,5.30
2018-01-27T02:07:49.237Z,5.30
2018-01-27T02:10:17.486Z,5.50
2018-01-27T02:12:45.771Z,5.40
2018-01-27T02:15:14.000Z,5.50
2018-01-27T02:17:42.252Z,5.60
2018-01-27T02:20:10.539Z,5.40
2018-01-27T02:22:38.799Z,5.40
2018-01-27T02:25:07.050Z,5.50
2018-01-27T02:27:35.369Z,5.50
2018-01-27T02:30:03.619Z,5.60
2018-01-27T02:32:31.866Z,5.50
2018-01-27T02:35:00.138Z,5.50
2018-01-27T02:37:28.435Z,5.40
2018-01-27T02:39:56.719Z,5.50
2018-01-27T02:42:24.987Z,5.50
2018-01-27T02:44:53.226Z,5.50
2018-01-27T02:47:22.251Z,5.40
2018-01-27T02:49:50.537Z,5.40
2018-01-27T02:52:18.783Z,5.60
2018-01-27T02:54:47.031Z,5.50
2018-01-27T02:57:15.306Z,5.50
2018-01-27T02:59:43.557Z,5.30
2018-01-27T03:02:11.803Z,5.30
2018-01-27T03:04:40.083Z,5.40
2018-01-27T03:07:08.323Z,5.30
2018-01-27T03:09:37.323Z,5.20
2018-01-27T03:12:06.363Z,5.20
2018-01-27T03:14:34.635Z,5.20
2018-01-27T03:17:02.875Z,5.10
2018-01-27T03:19:31.922Z,5.20
2018-01-27T03:22:00.152Z,5.20
2018-01-27T03:24:28.390Z,5.20
2018-01-27T03:26:56.657Z,5.20
2018-01-27T03:29:24.906Z,5.20
2018-01-27T03:31:53.143Z,5.20
2018-01-27T03:34:21.416Z,5.20
2018-01-27T03:36:49.636Z,5.20
2018-01-27T03:39:17.856Z,5.20
2018-01-27T03:41:46.141Z,5.20
2018-01-27T03:44:14.400Z,5.70
2018-01-27T03:46:42.658Z,5.20
2018-01-27T03:49:10.934Z,5.20
2018-01-27T03:51:39.183Z,5.20
2018-01-27T03:54:07.422Z,5.30
2018-01-27T03:56:35.687Z,5.20
2018-01-27T03:59:04.691Z,5.20
2018-01-27T04:01:32.955Z,5.20
2018-01-27T04:04:02.000Z,5.20
2018-01-27T04:06:30.254Z,5.20
2018-01-27T04:08:58.497Z,5.20
2018-01-27T04:11:26.776Z,5.20
2018-01-27T04:13:55.017Z,5.20
2018-01-27T04:16:23.254Z,5.20
2018-01-27T04:18:51.542Z,5.20
2018-01-27T04:21:19.822Z,5.20
2018-01-27T04:23:48.045Z,5.20
2018-01-27T04:26:17.132Z,5.20
2018-01-27T04:28:45.371Z,5.20
2018-01-27T04:31:13.753Z,5.30
2018-01-27T04:33:42.042Z,5.30
2018-01-27T04:36:10.305Z,5.30
2018-01-27T04:38:38.549Z,5.20
2018-01-27T04:41:06.809Z,5.20
2018-01-27T04:43:35.059Z,5.20
2018-01-27T04:46:03.307Z,5.20
2018-01-27T04:48:31.588Z,5.20
2018-01-27T04:50:59.800Z,5.20
2018-01-27T04:53:28.822Z,5.20
2018-01-27T04:55:57.126Z,5.20
2018-01-27T04:58:25.370Z,5.20
2018-01-27T05:00:53.630Z,5.20
2018-01-27T05:03:21.924Z,5.20
2018-01-27T05:05:50.200Z,5.20
2018-01-27T05:08:18.446Z,5.20
2018-01-27T05:10:47.494Z,5.20
2018-01-27T05:13:15.743Z,5.20
2018-01-27T05:15:43.998Z,5.20
2018-01-27T05:18:13.071Z,5.20
2018-01-27T05:20:42.094Z,5.20
2018-01-27T05:23:10.351Z,5.20
2018-01-27T05:25:39.379Z,5.20
2018-01-27T05:28:07.688Z,5.20
2018-01-27T05:30:35.932Z,5.20
2018-01-27T05:33:04.234Z,5.20
2018-01-27T05:35:32.485Z,5.20
2018-01-27T05:38:00.736Z,5.10
2018-01-27T05:40:29.037Z,5.10
2018-01-27T05:42:57.267Z,5.10
2018-01-27T05:45:25.516Z,5.10
2018-01-27T05:47:53.785Z,5.20
2018-01-27T05:50:22.049Z,5.10
2018-01-27T05:52:50.318Z,5.20
2018-01-27T05:55:18.594Z,5.10
2018-01-27T05:57:46.836Z,5.10
2018-01-27T06:00:15.092Z,5.10
2018-01-27T06:02:43.370Z,5.10
2018-01-27T06:05:11.609Z,5.10
2018-01-27T06:07:39.864Z,5.10
2018-01-27T06:10:08.144Z,5.10
2018-01-27T06:12:36.372Z,5.20
2018-01-27T06:15:05.433Z,5.10
2018-01-27T06:17:33.727Z,5.10
2018-01-27T06:20:01.960Z,5.10
2018-01-27T06:22:30.224Z,5.00
2018-01-27T06:24:58.501Z,5.00
2018-01-27T06:27:26.770Z,5.00
2018-01-27T06:29:55.026Z,5.00
2018-01-27T06:32:24.104Z,5.10
2018-01-27T06:34:52.373Z,5.10
2018-01-27T06:37:20.632Z,5.10
2018-01-27T06:39:48.968Z,5.10
2018-01-27T06:42:17.251Z,5.10
2018-01-27T06:44:45.498Z,5.10
2018-01-27T06:47:14.542Z,5.10
2018-01-27T06:49:42.791Z,5.10
2018-01-27T06:52:11.111Z,5.10
2018-01-27T06:54:39.423Z,5.10
2018-01-27T06:57:08.486Z,5.20
2018-01-27T06:59:36.741Z,5.20
2018-01-27T07:02:04.979Z,5.20
2018-01-27T07:04:34.014Z,5.10
2018-01-27T07:07:02.330Z,5.10
2018-01-27T07:09:30.554Z,5.20
2018-01-27T07:11:58.830Z,5.20
2018-01-27T07:14:27.883Z,5.20
2018-01-27T07:16:56.879Z,5.20
2018-01-27T07:19:25.967Z,5.20
2018-01-27T07:21:54.967Z,5.20
2018-01-27T07:24:23.961Z,5.20
2018-01-27T07:26:52.242Z,5.20
2018-01-27T07:29:21.269Z,5.30
2018-01-27T07:31:49.575Z,5.30
2018-01-27T07:34:17.800Z,5.20
2018-01-27T07:36:46.082Z,5.30
2018-01-27T07:39:14.400Z,5.20
2018-01-27T07:41:42.644Z,5.20
2018-01-27T07:44:10.890Z,5.20
2018-01-27T07:46:39.212Z,5.20
2018-01-27T07:49:08.251Z,5.20
2018-01-27T07:51:36.515Z,5.20
2018-01-27T07:54:04.785Z,5.20
2018-01-27T07:56:33.095Z,5.30
2018-01-27T07:59:01.388Z,5.30
2018-01-27T08:01:29.638Z,5.30
2018-01-27T08:03:58.764Z,5.30
2018-01-27T08:06:27.002Z,5.30
2018-01-27T08:08:55.994Z,5.30
2018-01-27T08:11:25.076Z,5.30
2018-01-27T08:13:53.322Z,5.30
2018-01-27T08:16:21.563Z,5.30
2018-01-27T08:18:49.883Z,5.40
2018-01-27T08:21:18.118Z,5.40
2018-01-27T08:23:46.370Z,5.40
2018-01-27T08:26:15.411Z,5.40
2018-01-27T08:28:43.646Z,5.40
2018-01-27T08:31:11.926Z,5.40
2018-01-27T08:33:40.227Z,5.40
2018-01-27T08:36:08.473Z,5.40
2018-01-27T08:38:36.728Z,5.40
2018-01-27T08:41:05.773Z,5.40
2018-01-27T08:43:34.022Z,5.40
2018-01-27T08:46:02.295Z,5.40
2018-01-27T08:48:30.604Z,5.40
2018-01-27T08:50:58.832Z,5.50
2018-01-27T08:53:27.853Z,5.90
2018-01-27T08:55:56.180Z,5.90
2018-01-27T08:58:24.413Z,5.70
2018-01-27T09:00:52.710Z,5.60
2018-01-27T09:03:20.992Z,5.60
2018-01-27T09:05:49.213Z,5.60
2018-01-27T09:08:17.497Z,5.70
2018-01-27T09:10:45.774Z,5.70
2018-01-27T09:13:14.060Z,5.70
2018-01-27T09:15:42.314Z,5.70
2018-01-27T09:18:11.343Z,5.70
2018-01-27T09:20:39.596Z,5.70
2018-01-27T09:23:07.888Z,5.70
2018-01-27T09:25:36.955Z,5.70
2018-01-27T09:28:05.210Z,5.70
2018-01-27T09:30:33.457Z,5.70
2018-01-27T09:33:01.761Z,5.90
2018-01-27T09:35:30.035Z,5.80
2018-01-27T09:37:58.483Z,5.90
2018-01-27T09:40:26.794Z,5.80
2018-01-27T09:42:55.882Z,5.90
2018-01-27T09:45:24.104Z,5.90
2018-01-27T09:47:52.441Z,5.80
2018-01-27T09:50:20.686Z,5.90
2018-01-27T09:52:49.010Z,5.90
2018-01-27T09:55:17.311Z,6.00
2018-01-27T09:57:45.574Z,5.90
2018-01-27T10:00:13.812Z,5.90
2018-01-27T10:02:42.119Z,5.90
2018-01-27T10:05:10.417Z,6.00
2018-01-27T10:07:38.652Z,6.10
2018-01-27T10:10:07.797Z,6.20
2018-01-27T10:12:36.093Z,6.20
2018-01-27T10:15:04.397Z,6.10
2018-01-27T10:17:33.511Z,6.20
2018-01-27T10:20:02.596Z,6.20
2018-01-27T10:22:31.641Z,6.20
2018-01-27T10:24:59.950Z,6.20
2018-01-27T10:27:28.191Z,6.30
2018-01-27T10:29:56.466Z,6.30
2018-01-27T10:32:24.808Z,6.30
2018-01-27T10:34:53.063Z,6.20
2018-01-27T10:37:21.389Z,6.40
2018-01-27T10:39:49.882Z,6.40
2018-01-27T10:42:18.188Z,6.50
2018-01-27T10:44:46.587Z,6.40
2018-01-27T10:47:15.641Z,6.50
2018-01-27T10:49:43.900Z,6.40
2018-01-27T10:52:12.147Z,6.50
2018-01-27T10:54:40.474Z,6.80
2018-01-27T10:57:08.990Z,6.90
2018-01-27T10:59:38.119Z,6.70
2018-01-27T11:02:06.440Z,6.70
2018-01-27T11:04:34.707Z,6.70
2018-01-27T11:07:02.981Z,6.60
2018-01-27T11:09:31.338Z,6.60
2018-01-27T11:11:59.591Z,6.50
2018-01-27T11:14:27.833Z,6.50
2018-01-27T11:16:56.911Z,6.40
2018-01-27T11:19:25.186Z,6.30
2018-01-27T11:21:53.466Z,6.50
2018-01-27T11:24:21.765Z,6.40
2018-01-27T11:26:50.053Z,6.50
2018-01-27T11:29:18.344Z,6.40
2018-01-27T11:31:46.648Z,6.30
2018-01-27T11:34:14.898Z,6.40
2018-01-27T11:36:43.311Z,6.40
2018-01-27T11:39:12.643Z,6.40
2018-01-27T11:41:41.770Z,6.40
2018-01-27T11:44:10.012Z,6.40
2018-01-27T11:46:39.049Z,6.50
2018-01-27T11:49:07.288Z,6.50
2018-01-27T11:51:35.555Z,6.50
2018-01-27T11:54:04.586Z,6.70
2018-01-27T11:56:32.845Z,6.70
2018-01-27T11:59:01.121Z,6.70
2018-01-27T12:01:29.396Z,6.70
2018-01-27T12:03:57.731Z,6.80
2018-01-27T12:06:25.994Z,6.80
2018-01-27T12:08:54.320Z,6.80
2018-01-27T12:11:22.614Z,6.80
2018-01-27T12:13:50.861Z,6.80
2018-01-27T12:16:19.186Z,6.90
2018-01-27T12:18:47.441Z,6.90
2018-01-27T12:21:15.736Z,6.90
2018-01-27T12:23:44.032Z,7.00
2018-01-27T12:26:12.316Z,7.10
2018-01-27T12:28:40.578Z,7.20
2018-01-27T12:31:08.873Z,7.10
2018-01-27T12:33:37.151Z,7.30
2018-01-27T12:36:05.415Z,7.20
2018-01-27T12:38:33.706Z,7.10
2018-01-27T12:41:02.081Z,7.10
2018-01-27T12:43:30.734Z,7.20
2018-01-27T12:45:59.032Z,7.20
2018-01-27T12:48:27.354Z,7.30
2018-01-27T12:50:55.589Z,7.30
2018-01-27T12:53:23.887Z,7.20
2018-01-27T12:55:52.939Z,7.20
2018-01-27T12:58:21.186Z,7.20
2018-01-27T13:00:49.561Z,7.10
2018-01-27T13:03:17.790Z,7.20
2018-01-27T13:05:46.088Z,7.20
2018-01-27T13:08:15.155Z,7.20
2018-01-27T13:10:43.408Z,7.20
2018-01-27T13:13:11.672Z,7.10
2018-01-27T13:15:39.998Z,7.20
2018-01-27T13:18:08.247Z,7.10
2018-01-27T13:20:36.496Z,7.20
2018-01-27T13:23:04.813Z,7.30
2018-01-27T13:25:33.078Z,7.40
2018-01-27T13:28:01.305Z,7.40
2018-01-27T13:30:29.566Z,7.40
2018-01-27T13:32:58.554Z,7.40
2018-01-27T13:35:26.810Z,7.40
2018-01-27T13:37:55.124Z,7.40
2018-01-27T13:40:23.463Z,7.50
2018-01-27T13:42:51.717Z,7.50
2018-01-27T13:45:20.298Z,7.50
2018-01-27T13:47:48.559Z,7.50
2018-01-27T13:50:16.849Z,7.50
2018-01-27T13:52:45.134Z,7.60
2018-01-27T13:55:13.398Z,7.50
2018-01-27T13:57:41.680Z,7.50
2018-01-27T14:00:09.990Z,7.40
2018-01-27T14:02:39.019Z,8.20
2018-01-27T14:05:07.363Z,8.20
2018-01-27T14:07:36.447Z,8.40
2018-01-27T14:10:04.735Z,8.30
2018-01-27T14:12:34.551Z,8.30
2018-01-27T14:15:03.607Z,8.30
2018-01-27T14:17:31.873Z,8.30
2018-01-27T14:20:00.177Z,8.30
2018-01-27T14:22:28.480Z,8.30
2018-01-27T14:24:57.486Z,8.30
2018-01-27T14:27:25.800Z,8.30
2018-01-27T14:29:54.156Z,8.20
2018-01-27T14:32:22.394Z,8.20
2018-01-27T14:34:50.660Z,8.30
2018-01-27T14:37:19.985Z,8.20
2018-01-27T14:39:48.240Z,8.20
2018-01-27T14:42:16.608Z,8.30
2018-01-27T14:44:44.895Z,8.30
2018-01-27T14:47:14.054Z,8.00
2018-01-27T14:49:42.330Z,8.00
2018-01-27T14:52:10.658Z,8.10
2018-01-27T14:54:38.908Z,8.00
2018-01-27T14:57:07.154Z,8.20
2018-01-27T14:59:35.434Z,8.20
2018-01-27T15:02:03.724Z,8.30
2018-01-27T15:04:31.982Z,8.30
2018-01-27T15:07:00.286Z,8.30
2018-01-27T15:09:28.571Z,8.10
2018-01-27T15:11:57.683Z,8.10
2018-01-27T15:14:26.754Z,8.30
2018-01-27T15:16:55.024Z,8.30
2018-01-27T15:19:23.356Z,8.30
2018-01-27T15:21:51.677Z,8.40
2018-01-27T15:24:19.946Z,8.40
2018-01-27T15:26:48.220Z,8.30
2018-01-27T15:29:16.516Z,8.20
2018-01-27T15:31:44.756Z,8.20
2018-01-27T15:34:13.027Z,8.30
2018-01-27T15:36:41.470Z,8.30
2018-01-27T15:39:09.714Z,8.20
2018-01-27T15:41:37.966Z,8.10
2018-01-27T15:44:06.297Z,8.10
2018-01-27T15:46:35.281Z,8.20
2018-01-27T15:49:04.399Z,8.20
2018-01-27T15:51:32.668Z,8.20
2018-01-27T15:54:00.963Z,8.40
2018-01-27T15:56:29.960Z,8.30
2018-01-27T15:58:58.235Z,8.30
2018-01-27T16:01:26.470Z,8.30
2018-01-27T16:03:54.721Z,8.30
2018-01-27T16:06:22.995Z,8.30
2018-01-27T16:08:51.328Z,8.20
2018-01-27T16:11:19.558Z,8.20
2018-01-27T16:13:48.723Z,8.40
2018-01-27T16:16:16.981Z,8.30
2018-01-27T16:18:45.308Z,8.10
2018-01-27T16:21:13.590Z,7.80
2018-01-27T16:23:41.896Z,7.70
2018-01-27T16:26:10.219Z,7.80
2018-01-27T16:28:38.874Z,7.70
2018-01-27T16:31:07.956Z,7.70
2018-01-27T16:33:36.221Z,7.70
2018-01-27T16:36:04.550Z,7.60
2018-01-27T16:38:32.828Z,7.60
2018-01-27T16:41:01.158Z,7.50
2018-01-27T16:43:29.691Z,7.40
2018-01-27T16:45:57.921Z,7.40
2018-01-27T16:48:26.171Z,7.50
2018-01-27T16:50:55.398Z,7.50
2018-01-27T16:53:23.660Z,7.50
2018-01-27T16:55:51.942Z,7.50
2018-01-27T16:58:20.280Z,7.50
2018-01-27T17:00:48.516Z,7.40
2018-01-27T17:03:16.755Z,7.30
2018-01-27T17:05:46.049Z,7.30
2018-01-27T17:08:15.196Z,7.20
2018-01-27T17:10:43.506Z,7.20
2018-01-27T17:13:11.763Z,7.10
2018-01-27T17:15:41.882Z,7.20
2018-01-27T17:18:12.781Z,7.20
2018-01-27T17:20:41.516Z,7.20
2018-01-27T17:23:16.170Z,7.10
2018-01-27T17:25:44.591Z,7.10
2018-01-27T17:28:13.721Z,7.10
2018-01-27T17:30:41.987Z,7.00
2018-01-27T17:33:11.022Z,6.80
2018-01-27T17:35:39.311Z,6.80
2018-01-27T17:38:08.315Z,6.90
2018-01-27T17:40:36.601Z,6.90
2018-01-27T17:43:04.856Z,7.00
2018-01-27T17:45:33.103Z,7.00
2018-01-27T17:48:02.155Z,6.90
2018-01-27T17:50:30.509Z,6.80
2018-01-27T17:52:58.781Z,6.90
2018-01-27T17:55:27.060Z,6.90
2018-01-27T17:57:55.369Z,6.90
2018-01-27T18:00:23.608Z,7.10
2018-01-27T18:02:51.859Z,7.20
2018-01-27T18:05:20.989Z,7.00
2018-01-27T18:07:49.236Z,7.00
2018-01-27T18:10:18.300Z,7.00
2018-01-27T18:12:47.311Z,7.00
2018-01-27T18:15:16.421Z,6.90
2018-01-27T18:17:44.709Z,6.90
2018-01-27T18:20:12.933Z,6.80
2018-01-27T18:22:41.247Z,6.90
2018-01-27T18:25:09.503Z,7.00
2018-01-27T18:27:38.569Z,7.00
2018-01-27T18:30:07.656Z,7.00
2018-01-27T18:32:36.765Z,7.00
2018-01-27T18:35:05.070Z,7.00
2018-01-27T18:37:34.097Z,6.90
2018-01-27T18:40:02.397Z,6.90
2018-01-27T18:42:30.733Z,6.70
2018-01-27T18:44:59.045Z,6.70
2018-01-27T18:47:27.743Z,6.60
2018-01-27T18:49:56.086Z,6.70
2018-01-27T18:52:25.406Z,6.60
2018-01-27T18:54:53.717Z,6.60
2018-01-27T18:57:22.025Z,6.60
2018-01-27T18:59:50.283Z,6.60
2018-01-27T19:02:19.349Z,6.50
2018-01-27T19:04:47.675Z,6.50
2018-01-27T19:07:15.904Z,6.50
2018-01-27T19:09:44.973Z,6.50
2018-01-27T19:12:13.369Z,6.60
2018-01-27T19:14:41.654Z,6.50
2018-01-27T19:17:09.904Z,6.60
2018-01-27T19:19:38.302Z,6.60
2018-01-27T19:22:06.549Z,6.60
2018-01-27T19:24:34.815Z,6.60
2018-01-27T19:27:03.089Z,6.50
2018-01-27T19:29:31.338Z,6.60
2018-01-27T19:32:00.382Z,6.70
2018-01-27T19:34:28.780Z,6.70
2018-01-27T19:36:57.974Z,6.90
2018-01-27T19:39:26.244Z,6.90
2018-01-27T19:41:54.553Z,7.00
2018-01-27T19:44:23.580Z,6.90
2018-01-27T19:46:51.833Z,6.90
2018-01-27T19:49:20.189Z,7.10
2018-01-27T19:51:49.200Z,7.20
2018-01-27T19:54:18.249Z,7.20
2018-01-27T19:56:46.673Z,7.20
2018-01-27T19:59:15.744Z,7.20
2018-01-27T20:01:44.022Z,7.20
2018-01-27T20:04:12.327Z,7.30
2018-01-27T20:06:41.352Z,7.30
2018-01-27T20:09:09.674Z,7.30
2018-01-27T20:11:38.623Z,7.30
2018-01-27T20:14:06.935Z,7.20
2018-01-27T20:16:35.194Z,7.20
2018-01-27T20:19:03.837Z,7.20
2018-01-27T20:21:32.952Z,7.20
2018-01-27T20:24:01.295Z,7.20
2018-01-27T20:26:31.178Z,7.20
2018-01-27T20:28:59.446Z,7.20
2018-01-27T20:31:27.703Z,7.20
2018-01-27T20:33:56.000Z,7.50
2018-01-27T20:36:24.250Z,7.40
2018-01-27T20:38:52.501Z,7.40
2018-01-27T20:41:20.772Z,7.50
2018-01-27T20:43:49.549Z,7.50
2018-01-27T20:46:18.546Z,7.20
2018-01-27T20:48:46.924Z,7.20
2018-01-27T20:51:16.011Z,7.20
2018-01-27T20:53:45.020Z,7.40
2018-01-27T20:56:13.286Z,7.30
2018-01-27T20:58:41.555Z,7.40
2018-01-27T21:01:10.599Z,7.30
2018-01-27T21:03:38.949Z,7.30
2018-01-27T21:06:07.201Z,7.30
2018-01-27T21:08:35.577Z,7.20
2018-01-27T21:11:04.625Z,7.40
2018-01-27T21:13:32.875Z,7.40
2018-01-27T21:16:01.108Z,7.40
2018-01-27T21:18:29.405Z,7.30
2018-01-27T21:20:58.407Z,7.20
2018-01-27T21:23:26.665Z,7.20
2018-01-27T21:25:55.720Z,7.30
2018-01-27T21:28:23.958Z,7.30
2018-01-27T21:30:52.248Z,7.30
2018-01-27T21:33:20.538Z,7.30
2018-01-27T21:35:48.779Z,7.20
2018-01-27T21:38:17.173Z,7.30
2018-01-27T21:40:45.458Z,7.30
2018-01-27T21:43:13.718Z,7.20
2018-01-27T21:45:42.050Z,7.30
2018-01-27T21:48:10.320Z,7.30
2018-01-27T21:50:38.611Z,7.30
2018-01-27T21:53:06.964Z,7.20
2018-01-27T21:55:35.285Z,7.10
2018-01-27T21:58:03.517Z,7.30
2018-01-27T22:00:31.793Z,7.20
2018-01-27T22:03:00.073Z,7.30
2018-01-27T22:05:28.357Z,7.20
2018-01-27T22:07:56.638Z,7.30
2018-01-27T22:10:24.905Z,7.30
2018-01-27T22:12:53.181Z,7.30
2018-01-27T22:15:21.414Z,7.10
2018-01-27T22:17:49.698Z,7.10
2018-01-27T22:20:17.933Z,7.10
2018-01-27T22:22:46.950Z,7.00
2018-01-27T22:25:15.394Z,6.90
2018-01-27T22:27:44.400Z,7.20
2018-01-27T22:30:13.399Z,7.20
2018-01-27T22:32:42.493Z,7.20
2018-01-27T22:35:11.553Z,7.10
2018-01-27T22:37:39.799Z,7.10
2018-01-27T22:40:08.081Z,7.30
2018-01-27T22:42:36.329Z,7.20
2018-01-27T22:45:04.617Z,7.20
2018-01-27T22:47:32.953Z,7.20
2018-01-27T22:50:01.953Z,7.10
2018-01-27T22:52:30.954Z,7.20
2018-01-27T22:54:59.477Z,7.10
2018-01-27T22:57:27.717Z,7.20
2018-01-27T22:59:55.956Z,7.20
2018-01-27T23:02:24.239Z,7.00
2018-01-27T23:04:52.463Z,7.10
2018-01-27T23:07:20.703Z,7.10
2018-01-27T23:09:49.884Z,6.90
2018-01-27T23:12:18.892Z,7.00
2018-01-27T23:14:47.894Z,7.00
2018-01-27T23:17:16.940Z,7.00
2018-01-27T23:19:45.171Z,7.00
2018-01-27T23:22:13.406Z,7.00
2018-01-27T23:24:41.755Z,6.80
2018-01-27T23:27:10.103Z,6.90
2018-01-27T23:29:38.360Z,6.90
2018-01-27T23:32:07.397Z,6.90
2018-01-27T23:34:35.628Z,6.90
2018-01-27T23:37:04.657Z,6.90
2018-01-27T23:39:32.925Z,6.90
2018-01-27T23:42:01.199Z,6.70
2018-01-27T23:44:29.434Z,6.90
2018-01-27T23:46:57.710Z,6.90
2018-01-27T23:49:26.027Z,7.00
2018-01-27T23:51:54.292Z,6.80
2018-01-27T23:54:22.558Z,6.70
2018-01-27T23:56:51.587Z,6.90
2018-01-27T23:59:19.818Z,6.90
